RYR3ER LKPR-EDDH
Flight info
| Callsign | RYR3ER |
|---|---|
| Flight time | N/A |
| Altitude | 34000 |
| Route | VENOX4B/30 VENOX DCT DEKOV Y621 ESLOR M748 RARUP RARUP6A |
| Aircraft | B738/M-SDE2E3FGHIRWXY/LB1 |
Departure
| Time | N/A |
|---|---|
| Airport | Václav Havel Airport Prague (LKPR) |
Arrival
| Time | 2026-04-30 18:30 |
|---|---|
| Airport | Hamburg Helmut Schmidt Airport (EDDH) |
| Time | Latitude | Longitude | Altitude | Speed | Heading |
|---|---|---|---|---|---|
| 2026-04-30 17:39 | 50.58030 | 14.14138 | 22868 ft | 286 kts | 12° |
| 2026-04-30 17:41 | 50.74112 | 14.17849 | 26827 ft | 297 kts | 13° |
| 2026-04-30 17:42 | 50.78228 | 14.18837 | 27688 ft | 301 kts | 13° |
| 2026-04-30 17:42 | 50.84468 | 14.20338 | 28979 ft | 305 kts | 14° |
| 2026-04-30 17:43 | 50.88703 | 14.21310 | 29799 ft | 310 kts | 10° |
| 2026-04-30 17:44 | 50.95308 | 14.20423 | 30847 ft | 325 kts | 359° |
| 2026-04-30 17:44 | 51.02098 | 14.18891 | 31696 ft | 331 kts | 359° |
| 2026-04-30 17:46 | 51.12711 | 14.09661 | 33015 ft | 374 kts | 327° |
| 2026-04-30 17:47 | 51.20556 | 13.98597 | 34050 ft | 380 kts | 327° |
| 2026-04-30 17:48 | 51.28699 | 13.87261 | 34429 ft | 400 kts | 327° |
| 2026-04-30 17:48 | 51.35150 | 13.78235 | 34432 ft | 420 kts | 326° |
| 2026-04-30 17:49 | 51.44146 | 13.65569 | 34433 ft | 442 kts | 326° |
| 2026-04-30 17:50 | 51.53478 | 13.52364 | 34418 ft | 448 kts | 325° |
| 2026-04-30 17:52 | 51.67455 | 13.32452 | 34415 ft | 447 kts | 325° |
| 2026-04-30 17:54 | 51.88243 | 13.02427 | 34420 ft | 445 kts | 324° |
| 2026-04-30 17:56 | 52.06642 | 12.75569 | 34413 ft | 445 kts | 323° |
| 2026-04-30 17:58 | 52.20408 | 12.55301 | 34416 ft | 444 kts | 324° |
| 2026-04-30 18:00 | 52.39465 | 12.29672 | 34412 ft | 445 kts | 325° |
| 2026-04-30 18:01 | 52.51335 | 12.13438 | 34417 ft | 446 kts | 324° |
| 2026-04-30 18:02 | 52.64834 | 11.94837 | 34425 ft | 447 kts | 324° |
| 2026-04-30 18:03 | 52.72009 | 11.84888 | 33767 ft | 448 kts | 324° |
| 2026-04-30 18:04 | 52.79131 | 11.74967 | 32962 ft | 450 kts | 323° |
| 2026-04-30 18:05 | 52.88714 | 11.61550 | 31912 ft | 451 kts | 323° |
| 2026-04-30 18:06 | 52.98284 | 11.48067 | 29183 ft | 452 kts | 323° |
| 2026-04-30 18:07 | 53.07865 | 11.34489 | 25659 ft | 449 kts | 323° |
| 2026-04-30 18:08 | 53.15032 | 11.24783 | 23710 ft | 446 kts | 329° |
| 2026-04-30 18:09 | 53.25211 | 11.13316 | 21035 ft | 437 kts | 329° |
| 2026-04-30 18:10 | 53.34516 | 11.02518 | 18745 ft | 381 kts | 328° |
| 2026-04-30 18:11 | 53.42395 | 10.91924 | 16605 ft | 345 kts | 325° |
| 2026-04-30 18:11 | 53.47806 | 10.84483 | 15222 ft | 326 kts | 325° |
| 2026-04-30 18:12 | 53.52964 | 10.77395 | 13923 ft | 316 kts | 325° |
| 2026-04-30 18:13 | 53.56318 | 10.72804 | 13375 ft | 310 kts | 325° |
| 2026-04-30 18:13 | 53.61304 | 10.66009 | 12446 ft | 306 kts | 325° |
| 2026-04-30 18:14 | 53.64603 | 10.61529 | 11858 ft | 303 kts | 323° |
| 2026-04-30 18:15 | 53.65570 | 10.51715 | 10980 ft | 312 kts | 247° |
| 2026-04-30 18:15 | 53.62902 | 10.41891 | 10096 ft | 309 kts | 245° |
| 2026-04-30 18:16 | 53.61129 | 10.35390 | 9496 ft | 305 kts | 245° |
| 2026-04-30 18:16 | 53.59362 | 10.28839 | 9433 ft | 307 kts | 245° |
| 2026-04-30 18:17 | 53.58486 | 10.25585 | 9425 ft | 303 kts | 245° |
| 2026-04-30 18:17 | 53.57622 | 10.22373 | 9325 ft | 297 kts | 245° |
| 2026-04-30 18:17 | 53.55955 | 10.16181 | 8899 ft | 288 kts | 245° |
| 2026-04-30 18:18 | 53.55133 | 10.13133 | 8694 ft | 283 kts | 244° |
| 2026-04-30 18:18 | 53.54324 | 10.10141 | 8488 ft | 279 kts | 244° |
| 2026-04-30 18:18 | 53.53354 | 10.07339 | 8273 ft | 274 kts | 235° |
| 2026-04-30 18:18 | 53.52307 | 10.04691 | 8078 ft | 270 kts | 234° |
| 2026-04-30 18:19 | 53.51266 | 10.02095 | 7871 ft | 266 kts | 234° |
| 2026-04-30 18:19 | 53.50233 | 9.99526 | 7677 ft | 263 kts | 234° |
| 2026-04-30 18:19 | 53.49225 | 9.97019 | 7490 ft | 260 kts | 234° |
| 2026-04-30 18:19 | 53.48214 | 9.94505 | 7258 ft | 259 kts | 234° |
| 2026-04-30 18:20 | 53.47205 | 9.91996 | 7035 ft | 258 kts | 234° |
| 2026-04-30 18:20 | 53.46205 | 9.89506 | 6786 ft | 257 kts | 234° |
| 2026-04-30 18:20 | 53.45219 | 9.87045 | 6536 ft | 255 kts | 234° |
| 2026-04-30 18:20 | 53.44231 | 9.84582 | 6308 ft | 254 kts | 234° |
| 2026-04-30 18:21 | 53.43239 | 9.82108 | 6082 ft | 252 kts | 234° |
| 2026-04-30 18:21 | 53.42278 | 9.79712 | 5854 ft | 250 kts | 234° |
| 2026-04-30 18:21 | 53.41309 | 9.77300 | 5634 ft | 249 kts | 234° |
| 2026-04-30 18:21 | 53.40341 | 9.74888 | 5396 ft | 247 kts | 234° |
| 2026-04-30 18:22 | 53.39380 | 9.72497 | 5183 ft | 246 kts | 234° |
| 2026-04-30 18:22 | 53.37472 | 9.67758 | 4996 ft | 245 kts | 235° |
| 2026-04-30 18:22 | 53.36878 | 9.65146 | 4983 ft | 245 kts | 265° |
| 2026-04-30 18:23 | 53.37143 | 9.62360 | 4919 ft | 244 kts | 296° |
| 2026-04-30 18:23 | 53.38189 | 9.60195 | 4628 ft | 240 kts | 328° |
| 2026-04-30 18:23 | 53.39725 | 9.59267 | 4330 ft | 235 kts | 0° |
| 2026-04-30 18:23 | 53.41300 | 9.59739 | 4088 ft | 229 kts | 21° |
| 2026-04-30 18:24 | 53.44262 | 9.61752 | 3536 ft | 229 kts | 36° |
| 2026-04-30 18:24 | 53.45458 | 9.63495 | 3268 ft | 227 kts | 45° |
| 2026-04-30 18:24 | 53.46542 | 9.65365 | 3054 ft | 225 kts | 49° |
| 2026-04-30 18:25 | 53.47560 | 9.67335 | 3000 ft | 224 kts | 51° |
| 2026-04-30 18:25 | 53.49535 | 9.71348 | 2995 ft | 222 kts | 52° |
| 2026-04-30 18:25 | 53.50516 | 9.73354 | 3000 ft | 222 kts | 52° |
| 2026-04-30 18:26 | 53.52434 | 9.77263 | 2943 ft | 206 kts | 52° |
| 2026-04-30 18:26 | 53.53319 | 9.79068 | 2724 ft | 199 kts | 52° |
| 2026-04-30 18:26 | 53.54195 | 9.80852 | 2470 ft | 194 kts | 52° |
| 2026-04-30 18:27 | 53.55841 | 9.84203 | 1959 ft | 173 kts | 52° |
| 2026-04-30 18:27 | 53.56575 | 9.85696 | 1723 ft | 161 kts | 52° |
| 2026-04-30 18:28 | 53.57948 | 9.88492 | 1317 ft | 152 kts | 52° |
| 2026-04-30 18:28 | 53.58612 | 9.89842 | 1113 ft | 146 kts | 51° |
| 2026-04-30 18:28 | 53.59889 | 9.92437 | 724 ft | 142 kts | 51° |
| 2026-04-30 18:29 | 53.60524 | 9.93727 | 541 ft | 144 kts | 51° |
| 2026-04-30 18:29 | 53.62417 | 9.97577 | 52 ft | 136 kts | 50° |
| 2026-04-30 18:30 | 53.63082 | 9.98965 | 51 ft | 23 kts | 74° |
| 2026-04-30 18:30 | 53.63088 | 9.99180 | 50 ft | 0 kts | 95° |
| 2026-04-30 18:31 | 53.63084 | 9.99234 | 50 ft | 5 kts | 97° |
| 2026-04-30 18:32 | 53.63082 | 9.99272 | 47 ft | 0 kts | 92° |
| 2026-04-30 18:33 | 53.63081 | 9.99296 | 50 ft | 4 kts | 91° |
| 2026-04-30 18:33 | 53.63085 | 9.99346 | 47 ft | 4 kts | 78° |
| 2026-04-30 18:34 | 53.63086 | 9.99358 | 48 ft | 0 kts | 76° |
| 2026-04-30 18:36 | 53.63086 | 9.99357 | 48 ft | 0 kts | 76° |
| 2026-04-30 18:37 | 53.63087 | 9.99359 | 49 ft | 1 kts | 76° |
| 2026-04-30 18:37 | 53.63109 | 9.99433 | 50 ft | 13 kts | 55° |
| 2026-04-30 18:37 | 53.63170 | 9.99565 | 50 ft | 13 kts | 53° |
| 2026-04-30 18:38 | 53.63191 | 9.99610 | 50 ft | 0 kts | 51° |
| 2026-04-30 18:38 | 53.63198 | 9.99624 | 50 ft | 4 kts | 51° |
| 2026-04-30 18:38 | 53.63225 | 9.99695 | 50 ft | 9 kts | 73° |
| 2026-04-30 18:38 | 53.63196 | 9.99784 | 50 ft | 9 kts | 153° |
| 2026-04-30 18:39 | 53.63138 | 9.99836 | 50 ft | 9 kts | 152° |
| 2026-04-30 18:39 | 53.63084 | 9.99881 | 50 ft | 7 kts | 153° |
| 2026-04-30 18:39 | 53.63050 | 9.99911 | 50 ft | 5 kts | 152° |
| 2026-04-30 18:39 | 53.63042 | 9.99918 | 50 ft | 0 kts | 153° |
| 2026-04-30 18:45 | 53.62775 | 10.00144 | 50 ft | 11 kts | 152° |
| 2026-04-30 18:45 | 53.62712 | 10.00200 | 50 ft | 8 kts | 152° |
| 2026-04-30 18:45 | 53.62701 | 10.00210 | 50 ft | 1 kts | 153° |
| 2026-04-30 18:46 | 53.62693 | 10.00216 | 50 ft | 1 kts | 153° |
| 2026-04-30 18:46 | 53.62682 | 10.00226 | 50 ft | 4 kts | 153° |
| 2026-04-30 18:46 | 53.62661 | 10.00277 | 50 ft | 6 kts | 81° |
| 2026-04-30 18:46 | 53.62666 | 10.00298 | 50 ft | 1 kts | 61° |
| 2026-04-30 18:47 | 53.62672 | 10.00315 | 48 ft | 3 kts | 61° |
| 2026-04-30 18:47 | 53.62679 | 10.00336 | 50 ft | 0 kts | 62° |